Time;durP1;ratioP1;P1;durP2;ratioP2;P2;SDS_P1;SDS_P2;PMS_P1;PMS_P2;Temp;Humidity;BMP_temperature;BMP_pressure;BME280_temperature;BME280_humidity;BME280_pressure;Samples;Min_cycle;Max_cycle;Signal;HPM_P1;HPM_P2
2022/07/07 00:01:37;;;;;;;14.13;11.20;;;;;;;23.00;75.87;99035.88;5073635;28;20070;-42
2022/07/07 00:04:02;;;;;;;15.23;11.18;;;;;;;22.99;76.19;99036.84;5074777;28;20459;-42
2022/07/07 00:06:29;;;;;;;15.38;10.48;;;;;;;22.96;76.16;99031.03;5093205;28;20039;-43
2022/07/07 00:08:54;;;;;;;16.25;10.88;;;;;;;22.88;76.15;99021.13;5093035;28;20161;-46
2022/07/07 00:11:22;;;;;;;16.80;11.57;;;;;;;22.92;76.37;99022.53;5074357;28;20557;-43
2022/07/07 00:13:48;;;;;;;18.35;12.18;;;;;;;22.91;76.55;99028.81;5092811;28;20716;-42
2022/07/07 00:16:13;;;;;;;16.77;11.68;;;;;;;22.91;76.42;99030.63;5074894;28;20044;-43
2022/07/07 00:18:39;;;;;;;19.73;12.23;;;;;;;22.80;76.53;99010.44;5092754;28;20040;-44
2022/07/07 00:21:04;;;;;;;17.58;12.07;;;;;;;22.90;76.54;99021.00;5056049;28;20096;-44
2022/07/07 00:23:31;;;;;;;17.13;13.13;;;;;;;22.88;76.63;99025.59;5074133;28;20043;-42
2022/07/07 00:25:56;;;;;;;17.45;12.35;;;;;;;22.85;76.77;99013.50;5074351;28;20372;-43
2022/07/07 00:28:22;;;;;;;18.25;12.65;;;;;;;22.78;76.85;99009.75;5073925;28;20044;-42
2022/07/07 00:30:48;;;;;;;16.35;13.10;;;;;;;22.75;76.92;99008.25;5074617;28;20405;-42
2022/07/07 00:33:14;;;;;;;19.60;12.63;;;;;;;22.86;76.84;99024.94;5092334;28;20063;-42
2022/07/07 00:35:40;;;;;;;22.38;13.32;;;;;;;22.84;76.70;99021.59;5074262;28;20423;-42
2022/07/07 00:38:06;;;;;;;25.27;13.77;;;;;;;22.78;76.73;99017.69;5092108;28;20460;-43
2022/07/07 00:40:32;;;;;;;19.58;13.30;;;;;;;22.75;76.81;99010.06;5092262;28;20136;-42
2022/07/07 00:42:58;;;;;;;22.88;13.75;;;;;;;22.80;76.58;99019.25;5091808;28;20050;-43
2022/07/07 00:45:24;;;;;;;18.45;13.43;;;;;;;22.85;76.73;99023.25;5092105;28;20036;-42
2022/07/07 00:47:52;;;;;;;21.90;13.88;;;;;;;22.86;76.54;99024.94;5073735;28;20044;-43
2022/07/07 00:50:18;;;;;;;24.73;12.98;;;;;;;22.82;76.99;99021.72;5092067;28;20044;-43
2022/07/07 00:52:44;;;;;;;16.52;13.02;;;;;;;22.79;77.49;99019.38;5091932;28;20490;-44
2022/07/07 00:55:10;;;;;;;18.38;13.82;;;;;;;22.70;77.48;99018.41;5091873;28;20048;-43
2022/07/07 00:57:36;;;;;;;16.27;12.77;;;;;;;22.69;77.36;99008.78;5070352;28;20511;-43
2022/07/07 01:00:07;;;;;;;21.30;14.02;;;;;;;22.78;77.66;99023.00;5073320;28;20423;-42
2022/07/07 01:02:33;;;;;;;19.40;13.88;;;;;;;22.79;77.42;99020.22;5074072;28;20047;-42
2022/07/07 01:05:00;;;;;;;24.88;15.82;;;;;;;22.79;77.36;99022.88;5091286;28;20499;-42
2022/07/07 01:07:26;;;;;;;20.67;14.32;;;;;;;22.63;77.14;98998.75;5056854;28;20534;-42
2022/07/07 01:09:54;;;;;;;22.55;13.77;;;;;;;22.80;77.10;99021.88;5091726;28;20044;-43
2022/07/07 01:12:20;;;;;;;25.05;14.60;;;;;;;22.81;77.28;99017.44;5045007;28;20523;-42
2022/07/07 01:14:45;;;;;;;22.67;14.43;;;;;;;22.80;77.25;99015.75;5091947;28;20126;-43
2022/07/07 01:17:12;;;;;;;23.20;14.80;;;;;;;22.81;77.33;99022.72;5091969;28;20028;-43
2022/07/07 01:19:38;;;;;;;18.42;14.45;;;;;;;22.79;77.51;99027.31;5091409;28;20044;-43
2022/07/07 01:22:09;;;;;;;22.70;15.40;;;;;;;22.79;77.35;99017.56;5091609;28;20044;-43
2022/07/07 01:24:34;;;;;;;18.42;13.45;;;;;;;22.79;77.48;99019.38;5073079;28;20519;-42
2022/07/07 01:27:09;;;;;;;20.10;14.32;;;;;;;22.80;77.27;99018.41;5091322;28;20074;-43
2022/07/07 01:29:40;;;;;;;20.50;13.70;;;;;;;22.81;77.13;99014.78;5100705;28;20436;-43
2022/07/07 01:32:09;;;;;;;18.27;13.38;;;;;;;22.82;76.71;99018.25;5056572;28;20487;-42
2022/07/07 01:34:35;;;;;;;;;;;;;;;22.83;76.48;99026.03;5056727;28;20499;-43
2022/07/07 01:37:01;;;;;;;17.30;13.80;;;;;;;22.77;76.41;99014.22;5090954;28;19922;-43
2022/07/07 01:39:27;;;;;;;19.67;14.57;;;;;;;22.83;76.46;99023.41;5056484;28;20097;-43
2022/07/07 01:41:53;;;;;;;16.80;13.52;;;;;;;22.85;76.41;99029.41;5072423;28;20044;-42
2022/07/07 01:44:19;;;;;;;19.00;14.32;;;;;;;22.85;76.09;99017.97;5055819;28;20058;-43
2022/07/07 01:46:45;;;;;;;18.55;13.77;;;;;;;22.77;76.27;99014.22;5076072;28;20515;-43
2022/07/07 01:49:11;;;;;;;17.80;14.38;;;;;;;22.75;76.27;99005.59;5073035;28;20043;-42
2022/07/07 01:51:37;;;;;;;20.05;14.57;;;;;;;22.84;76.41;99019.78;5090438;28;20043;-44
2022/07/07 01:54:03;;;;;;;19.08;15.20;;;;;;;22.83;76.40;99020.75;5091255;28;20040;-43
2022/07/07 01:56:29;;;;;;;21.55;14.40;;;;;;;22.83;76.42;99020.75;5090956;28;20076;-42
2022/07/07 01:58:54;;;;;;;21.25;15.15;;;;;;;22.82;76.53;99019.06;5054821;28;20044;-42
2022/07/07 02:01:20;;;;;;;17.20;14.27;;;;;;;22.83;76.65;99018.09;5085788;28;20152;-42
2022/07/07 02:03:46;;;;;;;21.02;14.63;;;;;;;22.84;76.42;99019.78;5089685;28;20047;-41
2022/07/07 02:06:11;;;;;;;16.48;12.80;;;;;;;22.84;76.49;99017.13;5090181;28;20089;-42
2022/07/07 02:08:37;;;;;;;19.65;13.52;;;;;;;22.84;76.48;99010.97;5071488;28;20135;-42
2022/07/07 02:11:12;;;;;;;15.95;13.35;;;;;;;22.84;76.30;99019.78;5090790;28;20593;-42
2022/07/07 02:13:39;;;;;;;20.85;14.38;;;;;;;22.86;76.19;99016.97;5074244;28;20040;-42
2022/07/07 02:16:25;;;;;;;21.25;14.23;;;;;;;22.87;76.01;99016.84;5072885;28;20040;-41
2022/07/07 02:18:58;;;;;;;16.63;13.13;;;;;;;22.81;75.70;99004.16;5055739;28;20043;-42
2022/07/07 02:21:24;;;;;;;18.95;14.35;;;;;;;22.90;75.81;99021.84;5090174;28;20112;-43
2022/07/07 02:23:52;;;;;;;18.15;13.48;;;;;;;22.93;75.63;99024.19;5089678;28;20048;-42
2022/07/07 02:26:19;;;;;;;17.02;13.25;;;;;;;22.94;75.52;99020.56;5090468;28;20055;-41
2022/07/07 02:28:44;;;;;;;18.30;12.40;;;;;;;22.97;75.08;99017.63;5054866;28;20036;-43
2022/07/07 02:31:10;;;;;;;22.52;13.15;;;;;;;23.02;74.88;99022.50;5072216;28;20503;-42
2022/07/07 02:33:37;;;;;;;18.17;12.13;;;;;;;23.05;74.53;99019.53;5072214;28;20036;-42
2022/07/07 02:36:04;;;;;;;14.60;12.23;;;;;;;23.01;74.53;98999.59;5090263;28;20059;-43
2022/07/07 02:38:30;;;;;;;16.02;12.50;;;;;;;23.12;74.15;99017.97;5055515;28;20131;-42
2022/07/07 02:40:56;;;;;;;14.85;12.55;;;;;;;23.16;74.13;99017.53;5089604;28;20407;-43
2022/07/07 02:43:22;;;;;;;14.70;12.88;;;;;;;23.24;73.57;99027.38;5089680;28;20047;-43
2022/07/07 02:45:49;;;;;;;23.25;13.10;;;;;;;23.30;73.11;99041.84;5071979;28;20048;-43
2022/07/07 02:48:18;;;;;;;16.33;12.40;;;;;;;23.37;72.85;99029.69;5064966;28;20043;-42
2022/07/07 02:50:44;;;;;;;21.55;12.38;;;;;;;23.43;72.59;99029.09;5064467;28;20118;-42
2022/07/07 02:53:11;;;;;;;12.70;10.93;;;;;;;23.49;71.62;99026.69;5071868;28;20046;-42
2022/07/07 02:55:37;;;;;;;14.93;11.45;;;;;;;23.59;71.21;99030.13;5089020;28;20107;-42
2022/07/07 02:58:05;;;;;;;14.38;10.65;;;;;;;23.68;70.52;99033.69;5052694;28;20048;-41
2022/07/07 03:00:35;;;;;;;13.40;9.82;;;;;;;23.72;69.48;99023.56;5069388;28;20044;-42
2022/07/07 03:03:01;;;;;;;11.80;10.25;;;;;;;23.84;68.56;99046.25;5087846;28;20112;-42
2022/07/07 03:05:27;;;;;;;12.50;9.38;;;;;;;23.85;67.43;99040.81;5087932;28;20071;-38
2022/07/07 03:07:53;;;;;;;10.77;8.90;;;;;;;23.90;67.26;99049.16;5087733;28;20040;-40
2022/07/07 03:10:19;;;;;;;11.57;8.80;;;;;;;23.83;66.70;99026.84;5087548;28;20072;-39
2022/07/07 03:12:45;;;;;;;12.50;8.95;;;;;;;23.96;66.76;99039.75;5054731;28;20408;-40
2022/07/07 03:15:11;;;;;;;10.60;9.05;;;;;;;23.99;67.00;99048.22;5072032;28;20044;-39
2022/07/07 03:17:40;;;;;;;11.82;9.35;;;;;;;24.00;66.91;99049.91;5093472;28;20617;-40
2022/07/07 03:20:07;;;;;;;10.43;8.75;;;;;;;24.07;66.79;99039.50;5089776;28;20032;-39
2022/07/07 03:22:32;;;;;;;14.25;9.20;;;;;;;24.14;66.55;99045.03;5089045;28;20060;-39
2022/07/07 03:24:58;;;;;;;11.38;9.27;;;;;;;24.19;66.26;99053.38;5070907;28;20089;-40
2022/07/07 03:27:24;;;;;;;10.68;9.57;;;;;;;24.23;66.01;99062.75;5090419;28;20052;-39
2022/07/07 03:29:50;;;;;;;13.32;9.85;;;;;;;24.28;66.01;99049.81;5093674;28;20419;-38
2022/07/07 03:32:16;;;;;;;11.77;9.43;;;;;;;24.34;65.84;99060.66;5075476;28;20507;-38
2022/07/07 03:34:42;;;;;;;12.40;9.43;;;;;;;24.36;66.03;99058.69;5075064;28;20039;-39
2022/07/07 03:37:07;;;;;;;12.00;10.00;;;;;;;24.42;65.92;99055.41;5092652;28;20044;-40
2022/07/07 03:39:33;;;;;;;14.30;10.48;;;;;;;24.30;65.77;99034.56;5093592;28;20031;-39
2022/07/07 03:41:59;;;;;;;12.88;9.30;;;;;;;24.40;65.93;99053.88;5093129;28;20511;-40
2022/07/07 03:44:25;;;;;;;11.98;9.52;;;;;;;24.40;65.81;99045.91;5075772;28;20050;-39
2022/07/07 03:46:51;;;;;;;11.95;9.60;;;;;;;24.37;65.89;99051.56;5093088;28;20083;-39
2022/07/07 03:49:16;;;;;;;13.82;9.65;;;;;;;24.38;65.98;99051.41;5093070;28;20044;-39
2022/07/07 03:51:42;;;;;;;12.40;8.82;;;;;;;24.34;66.06;99055.34;5093155;28;20539;-39
2022/07/07 03:54:09;;;;;;;10.98;9.88;;;;;;;24.16;66.06;99024.47;5074656;28;20044;-38
2022/07/07 03:56:36;;;;;;;16.58;9.60;;;;;;;24.29;66.65;99046.16;5064014;28;20534;-39
2022/07/07 03:59:02;;;;;;;12.13;9.73;;;;;;;24.30;66.67;99047.84;5093019;28;20036;-38
2022/07/07 04:01:28;;;;;;;15.10;9.57;;;;;;;24.32;66.44;99043.22;5093134;28;20040;-39
2022/07/07 04:03:53;;;;;;;9.88;8.82;;;;;;;24.37;66.16;99052.38;5057695;28;20036;-39
2022/07/07 04:06:19;;;;;;;10.32;9.23;;;;;;;24.36;66.42;99045.41;5092861;28;20040;-39
2022/07/07 04:08:45;;;;;;;12.48;10.02;;;;;;;24.43;66.12;99040.31;5092682;28;20039;-39
2022/07/07 04:11:12;;;;;;;10.85;9.50;;;;;;;24.53;65.99;99038.38;5092693;28;20077;-39
2022/07/07 04:13:37;;;;;;;11.90;10.77;;;;;;;24.49;65.40;99034.38;5092424;28;20068;-41
2022/07/07 04:16:04;;;;;;;11.80;9.10;;;;;;;24.43;65.88;99042.97;5072525;28;20610;-39
2022/07/07 04:18:29;;;;;;;10.82;9.80;;;;;;;24.46;66.02;99042.63;5091879;28;20040;-40
2022/07/07 04:20:55;;;;;;;11.02;9.48;;;;;;;24.48;65.83;99043.31;5073002;28;20059;-39
2022/07/07 04:23:21;;;;;;;15.82;9.63;;;;;;;24.54;65.65;99047.19;5092413;28;20054;-39
2022/07/07 04:25:46;;;;;;;14.63;9.98;;;;;;;24.64;65.62;99045.25;5093093;28;20126;-40
2022/07/07 04:28:12;;;;;;;13.55;9.73;;;;;;;24.74;65.64;99043.31;5092890;28;20040;-40
2022/07/07 04:30:38;;;;;;;12.52;9.90;;;;;;;24.82;65.59;99044.16;5092162;28;20047;-40
2022/07/07 04:33:04;;;;;;;14.30;9.93;;;;;;;24.95;65.36;99032.31;5088053;28;20523;-38
2022/07/07 04:35:30;;;;;;;13.40;9.38;;;;;;;25.07;65.37;99042.47;5074016;28;20072;-40
2022/07/07 04:37:55;;;;;;;10.77;8.90;;;;;;;25.12;64.49;99032.19;5090885;28;20040;-39
2022/07/07 04:40:21;;;;;;;13.45;10.25;;;;;;;25.24;64.25;99046.03;5091338;28;20079;-38
2022/07/07 04:42:47;;;;;;;12.82;10.00;;;;;;;25.42;64.10;99048.59;5073799;28;20036;-39
2022/07/07 04:45:13;;;;;;;18.75;10.00;;;;;;;25.52;63.32;99043.97;5074140;28;20101;-39
2022/07/07 04:47:42;;;;;;;10.85;8.90;;;;;;;25.55;62.25;99035.63;5091271;28;20050;-40
2022/07/07 04:50:11;;;;;;;12.73;9.50;;;;;;;25.57;62.31;99033.69;5091675;28;20044;-39
2022/07/07 04:52:38;;;;;;;13.35;9.90;;;;;;;25.55;62.35;99039.16;5073089;28;20495;-39
2022/07/07 04:55:04;;;;;;;9.75;8.75;;;;;;;25.57;61.82;99033.69;5092040;28;20040;-40
2022/07/07 04:57:30;;;;;;;11.95;9.32;;;;;;;25.59;62.24;99024.53;5092168;28;20577;-39
2022/07/07 04:59:59;;;;;;;13.93;9.50;;;;;;;25.73;62.43;99028.41;5091697;28;20507;-40
2022/07/07 05:02:26;;;;;;;14.50;10.38;;;;;;;25.88;62.09;99026.75;5074891;28;20044;-39
2022/07/07 05:04:52;;;;;;;12.43;8.93;;;;;;;25.92;61.26;99033.38;5090951;28;20133;-54
2022/07/07 05:07:18;;;;;;;10.02;8.48;;;;;;;25.87;61.42;99035.72;5081816;28;20040;-56
2022/07/07 05:09:44;;;;;;;10.50;9.18;;;;;;;25.91;60.92;99028.25;5091988;28;20050;-56
2022/07/07 05:12:10;;;;;;;11.07;9.05;;;;;;;25.90;61.11;99029.25;5078288;28;20044;-56
2022/07/07 05:14:36;;;;;;;12.90;9.57;;;;;;;25.98;60.39;99031.91;5091727;28;20526;-54
2022/07/07 05:17:02;;;;;;;10.75;9.52;;;;;;;26.11;60.04;99018.91;5107860;28;20043;-58
2022/07/07 05:19:28;;;;;;;11.90;9.57;;;;;;;26.22;59.83;99025.75;5103405;28;20048;-58
2022/07/07 05:21:54;;;;;;;10.48;9.10;;;;;;;26.49;59.71;99039.53;5087358;28;20193;-56
2022/07/07 05:24:20;;;;;;;9.75;8.32;;;;;;;26.56;58.66;99024.53;5090056;28;20046;-54
2022/07/07 05:26:46;;;;;;;11.77;9.45;;;;;;;26.54;57.91;99037.19;5088930;28;20036;-56
2022/07/07 05:29:12;;;;;;;10.27;8.60;;;;;;;26.62;57.56;99031.03;5072197;28;20476;-57
2022/07/07 05:31:42;;;;;;;11.55;9.15;;;;;;;26.78;57.73;99031.00;5072770;28;20051;-58
2022/07/07 05:34:08;;;;;;;14.07;8.82;;;;;;;27.02;57.45;99030.09;5089970;28;20149;-57
2022/07/07 05:36:34;;;;;;;13.02;9.32;;;;;;;27.13;56.25;99023.53;5090159;28;20531;-57
2022/07/07 05:39:01;;;;;;;12.20;9.38;;;;;;;27.14;56.83;99028.72;5090169;28;20036;-56
2022/07/07 05:41:27;;;;;;;12.90;9.80;;;;;;;27.10;57.36;99023.91;5090141;28;20048;-56
2022/07/07 05:43:53;;;;;;;11.40;9.88;;;;;;;27.06;57.60;99020.72;5090960;28;20081;-53
2022/07/07 05:46:19;;;;;;;14.32;9.80;;;;;;;26.96;57.48;98993.41;5090317;28;20108;-59
2022/07/07 05:48:45;;;;;;;16.98;9.65;;;;;;;27.19;57.08;99017.50;5080863;28;20511;-59
2022/07/07 05:51:11;;;;;;;12.35;9.88;;;;;;;27.22;57.00;99017.97;5100495;28;20039;-58
2022/07/07 05:53:37;;;;;;;15.85;9.73;;;;;;;27.28;56.95;99014.63;5082289;28;20035;-57
2022/07/07 05:56:04;;;;;;;15.40;9.57;;;;;;;27.21;57.00;99004.81;5102799;28;20036;-57
2022/07/07 05:58:30;;;;;;;14.40;10.18;;;;;;;27.27;56.83;99020.13;5081797;28;20050;-57
2022/07/07 06:00:55;;;;;;;9.73;8.73;;;;;;;27.16;56.37;99005.34;5090912;28;20088;-55
2022/07/07 06:03:22;;;;;;;10.85;9.38;;;;;;;27.23;56.42;99019.66;5090665;28;20036;-48
2022/07/07 06:05:47;;;;;;;12.98;9.45;;;;;;;27.21;56.42;99023.50;5090842;28;20039;-48
2022/07/07 06:08:13;;;;;;;13.05;8.45;;;;;;;27.21;55.46;99012.84;5090368;28;20423;-63
2022/07/07 06:10:39;;;;;;;10.77;8.07;;;;;;;27.31;54.32;99016.13;5089990;28;20043;-58
2022/07/07 06:13:04;;;;;;;9.70;7.53;;;;;;;27.23;53.74;99016.13;5093643;28;20039;-58
2022/07/07 06:15:33;;;;;;;9.88;7.75;;;;;;;27.15;53.94;99002.84;5103274;28;20039;-57
2022/07/07 06:18:00;;;;;;;11.10;7.50;;;;;;;27.23;53.78;98995.63;5073176;28;20042;-56
2022/07/07 06:20:26;;;;;;;9.73;7.55;;;;;;;27.23;53.30;98998.28;5070179;28;20755;-52
2022/07/07 06:22:52;;;;;;;9.18;7.88;;;;;;;27.42;53.46;98993.53;5086741;28;20062;-58
2022/07/07 06:25:20;;;;;;;11.50;8.18;;;;;;;27.66;53.37;99004.06;5068416;28;20479;-42
2022/07/07 06:27:46;;;;;;;12.75;8.25;;;;;;;27.81;52.89;99004.94;5087454;28;20036;-40
2022/07/07 06:30:12;;;;;;;14.10;8.13;;;;;;;27.98;52.40;98997.63;5069324;28;20036;-40
2022/07/07 06:32:37;;;;;;;11.77;8.27;;;;;;;28.07;52.68;98986.69;5080211;28;20061;-40
2022/07/07 06:35:05;;;;;;;8.63;7.75;;;;;;;28.18;51.17;98985.44;5087362;28;20036;-41
2022/07/07 06:37:39;;;;;;;10.10;7.45;;;;;;;28.32;50.42;98994.50;5073625;28;20131;-46
2022/07/07 06:40:05;;;;;;;11.38;7.57;;;;;;;28.48;50.36;98992.50;5081260;28;20044;-43
2022/07/07 06:42:31;;;;;;;8.60;7.65;;;;;;;28.85;49.24;98996.94;5054005;28;20043;-44
2022/07/07 06:45:05;;;;;;;10.13;7.20;;;;;;;29.32;48.08;98990.34;5089243;28;20523;-46
2022/07/07 06:47:30;;;;;;;8.18;7.32;;;;;;;29.60;47.71;98999.31;5089780;28;20092;-44
2022/07/07 06:49:56;;;;;;;11.90;7.80;;;;;;;30.30;45.91;98985.09;5089432;28;20043;-44
2022/07/07 06:52:22;;;;;;;9.63;7.75;;;;;;;31.11;44.09;98992.41;5090188;28;20043;-44
2022/07/07 06:54:48;;;;;;;8.65;7.32;;;;;;;32.21;42.68;98983.94;5090059;28;20522;-45
2022/07/07 06:57:15;;;;;;;8.63;7.10;;;;;;;33.04;40.82;98987.69;5087487;28;20066;-41
2022/07/07 06:59:40;;;;;;;8.25;6.95;;;;;;;33.72;39.01;98987.16;5087534;28;20404;-41
2022/07/07 07:02:07;;;;;;;9.18;7.47;;;;;;;34.24;37.61;99000.25;5069163;28;20040;-42
2022/07/07 07:04:33;;;;;;;10.00;7.30;;;;;;;34.75;36.95;99005.38;5073447;28;20047;-43
2022/07/07 07:06:59;;;;;;;11.43;7.68;;;;;;;35.24;35.92;99006.25;5093546;28;20040;-42
2022/07/07 07:09:24;;;;;;;12.02;7.22;;;;;;;35.80;35.36;99007.81;5093232;28;20032;-42
2022/07/07 07:11:50;;;;;;;11.07;8.20;;;;;;;35.88;33.98;99004.75;5074980;28;20073;-44
2022/07/07 07:14:16;;;;;;;10.32;8.15;;;;;;;36.56;32.92;99013.19;5092734;28;20036;-43
2022/07/07 07:16:44;;;;;;;9.30;8.05;;;;;;;36.60;31.95;99013.53;5093262;28;20054;-44
2022/07/07 07:19:10;;;;;;;13.18;7.20;;;;;;;36.98;31.35;98999.47;5074592;28;20138;-43
2022/07/07 07:21:36;;;;;;;11.23;7.22;;;;;;;37.43;30.82;99010.41;5093157;28;20201;-43
2022/07/07 07:24:01;;;;;;;9.43;7.85;;;;;;;37.69;29.99;99009.84;5093107;28;20079;-43
2022/07/07 07:26:27;;;;;;;8.07;7.05;;;;;;;38.07;29.60;99011.91;5092979;28;20533;-44
2022/07/07 07:28:53;;;;;;;12.68;8.18;;;;;;;37.97;29.66;99000.84;5093406;28;20043;-43
2022/07/07 07:31:19;;;;;;;9.32;8.38;;;;;;;38.40;29.28;99005.63;5092679;28;20044;-44
2022/07/07 07:33:45;;;;;;;12.10;8.45;;;;;;;37.55;30.12;99016.66;5073599;28;20086;-45
2022/07/07 07:36:11;;;;;;;9.38;7.72;;;;;;;36.79;31.35;99001.53;5073727;28;20039;-42
2022/07/07 07:38:37;;;;;;;8.00;7.30;;;;;;;35.88;32.11;99005.56;5093535;28;20499;-44
2022/07/07 07:41:08;;;;;;;10.52;7.75;;;;;;;36.83;31.39;99027.91;5093210;28;20032;-44
2022/07/07 07:43:34;;;;;;;10.18;7.85;;;;;;;37.65;30.04;99011.41;5058655;28;20047;-44
2022/07/07 07:46:00;;;;;;;9.95;7.75;;;;;;;38.05;29.33;99019.50;5093224;28;20047;-40
2022/07/07 07:48:26;;;;;;;8.77;7.97;;;;;;;37.46;30.03;99001.81;5092636;28;20427;-46
2022/07/07 07:50:52;;;;;;;10.40;7.47;;;;;;;36.76;30.42;99010.94;5055802;28;20036;-47
2022/07/07 07:53:19;;;;;;;9.82;7.55;;;;;;;36.18;32.18;99002.00;5073082;28;20047;-44
2022/07/07 07:55:45;;;;;;;12.43;8.20;;;;;;;36.29;31.70;99018.25;5091583;28;20032;-43
2022/07/07 07:58:11;;;;;;;12.75;8.55;;;;;;;36.82;31.30;99018.13;5074308;28;20043;-43
2022/07/07 08:00:37;;;;;;;9.57;7.13;;;;;;;37.34;30.58;99018.13;5092589;28;20044;-44
2022/07/07 08:03:03;;;;;;;9.18;8.07;;;;;;;36.89;30.84;99015.31;5057515;28;20044;-42
2022/07/07 08:05:30;;;;;;;15.85;8.05;;;;;;;36.40;30.86;99016.59;5092446;28;20058;-45
2022/07/07 08:07:56;;;;;;;8.40;7.60;;;;;;;36.77;30.32;98998.22;5092793;28;20130;-47
2022/07/07 08:10:22;;;;;;;9.82;7.88;;;;;;;37.74;29.02;99001.81;5092826;28;20043;-43
2022/07/07 08:12:49;;;;;;;9.27;8.10;;;;;;;38.02;28.36;99023.50;5074773;28;20048;-43
2022/07/07 08:15:15;;;;;;;13.40;8.15;;;;;;;38.55;27.99;99022.19;5074428;28;20419;-41
2022/07/07 08:17:41;;;;;;;8.65;7.85;;;;;;;38.93;27.37;99024.91;5092709;28;20047;-43
2022/07/07 08:20:08;;;;;;;9.65;8.52;;;;;;;39.38;26.15;99021.94;5074297;28;20040;-44
2022/07/07 08:22:34;;;;;;;10.10;8.52;;;;;;;39.63;26.04;99013.22;5092028;28;20051;-44
2022/07/07 08:25:00;;;;;;;9.77;8.98;;;;;;;40.15;25.50;99010.69;5092566;28;20064;-44
2022/07/07 08:27:26;;;;;;;11.93;9.45;;;;;;;40.62;25.19;99021.69;5091605;28;20081;-47
2022/07/07 08:29:52;;;;;;;9.98;8.07;;;;;;;40.08;26.28;99018.28;5092454;28;20066;-44
2022/07/07 08:32:18;;;;;;;13.45;8.15;;;;;;;39.03;26.69;99017.97;5092494;28;20516;-45
2022/07/07 08:34:45;;;;;;;9.80;8.63;;;;;;;38.71;27.45;99023.22;5092160;28;20036;-45
2022/07/07 08:37:11;;;;;;;13.07;8.55;;;;;;;38.02;28.33;99022.69;5091742;28;20043;-45
2022/07/07 08:39:37;;;;;;;10.10;8.75;;;;;;;38.67;27.19;99022.91;5074003;28;20135;-43
2022/07/07 08:42:04;;;;;;;9.15;8.27;;;;;;;39.48;26.71;99034.84;5092001;28;20146;-44
2022/07/07 08:44:30;;;;;;;9.40;8.48;;;;;;;39.15;26.86;99041.22;5074283;28;20083;-45
2022/07/07 08:46:55;;;;;;;9.25;8.38;;;;;;;38.52;27.29;99022.69;5056164;28;20472;-45
2022/07/07 08:49:21;;;;;;;11.13;8.38;;;;;;;37.43;28.87;99027.53;5100573;28;20050;-44
2022/07/07 08:51:47;;;;;;;9.25;8.10;;;;;;;37.29;29.39;99020.75;5107422;28;20067;-44
2022/07/07 08:54:14;;;;;;;10.85;8.60;;;;;;;36.30;30.36;99029.91;5090724;28;20504;-42
2022/07/07 08:56:41;;;;;;;10.88;8.30;;;;;;;35.61;31.49;99028.63;5089600;28;20119;-44
2022/07/07 08:59:09;;;;;;;10.73;8.93;;;;;;;35.89;31.57;99028.06;5090314;28;20032;-43
2022/07/07 09:01:35;;;;;;;12.13;9.27;;;;;;;36.24;31.32;99025.41;5094400;28;20285;-42
2022/07/07 09:04:02;;;;;;;10.40;9.40;;;;;;;35.80;32.11;99021.34;5100603;28;20294;-43
2022/07/07 09:06:28;;;;;;;9.13;8.23;;;;;;;35.52;32.36;99028.16;5082095;28;20043;-41
2022/07/07 09:08:54;;;;;;;14.77;8.95;;;;;;;35.95;31.92;99032.53;5091513;28;20526;-41
2022/07/07 09:11:30;;;;;;;10.20;9.30;;;;;;;37.16;30.01;99029.97;5101320;28;20043;-43
2022/07/07 09:14:09;;;;;;;10.10;9.10;;;;;;;37.46;29.99;99027.06;5091191;28;20125;-44
2022/07/07 09:16:36;;;;;;;12.63;9.63;;;;;;;38.12;29.38;99025.56;5098093;28;20044;-42
2022/07/07 09:19:06;;;;;;;12.13;9.68;;;;;;;39.60;28.04;99024.63;5053145;28;20046;-41
2022/07/07 09:21:33;;;;;;;10.23;8.85;;;;;;;38.71;28.19;99026.75;5097037;28;20508;-44
2022/07/07 09:24:01;;;;;;;11.65;9.43;;;;;;;37.30;29.98;99027.81;5070258;28;20508;-44
2022/07/07 09:26:39;;;;;;;;;;;;;;;36.60;31.18;99029.78;5082873;28;20051;-44
2022/07/07 09:29:06;;;;;;;9.82;8.52;;;;;;;36.11;31.83;99019.13;5100489;28;20085;-45
2022/07/07 09:32:04;;;;;;;10.35;9.32;;;;;;;35.23;33.16;99018.13;5099295;28;20043;-43
2022/07/07 09:34:32;;;;;;;9.82;8.88;;;;;;;35.03;33.79;99021.03;5081000;28;20048;-44
2022/07/07 09:39:57;;;;;;;12.90;9.00;;;;;;;34.88;34.22;99004.41;5089951;28;20515;-44
2022/07/07 09:42:25;;;;;;;11.25;8.90;;;;;;;36.07;32.81;99012.53;5090208;28;20499;-42
2022/07/07 09:44:52;;;;;;;10.65;9.60;;;;;;;36.60;32.20;99014.34;5072031;28;20115;-44
2022/07/07 09:47:22;;;;;;;14.32;8.48;;;;;;;36.93;30.95;99011.03;5091420;28;20042;-43
2022/07/07 09:50:01;;;;;;;9.07;8.27;;;;;;;36.26;31.58;99010.59;5092445;28;20066;-44
2022/07/07 09:52:30;;;;;;;11.43;8.32;;;;;;;36.09;31.89;99010.44;5084663;28;20047;-42
2022/07/07 09:54:57;;;;;;;10.67;8.97;;;;;;;36.51;31.15;99015.78;5071471;28;20040;-42
2022/07/07 09:57:24;;;;;;;;;;;;;;;36.79;31.03;99015.91;5074056;28;20507;-42
2022/07/07 09:59:50;;;;;;;10.88;9.20;;;;;;;36.30;31.77;99009.06;5101991;28;19916;-42
2022/07/07 10:02:25;;;;;;;9.40;8.50;;;;;;;36.01;32.61;99016.19;5071401;28;20061;-42
2022/07/07 10:04:53;;;;;;;9.60;8.57;;;;;;;35.43;33.14;99020.59;5083981;28;20047;-43
2022/07/07 10:07:22;;;;;;;9.43;8.40;;;;;;;35.56;33.09;99014.97;5083088;28;20039;-42
2022/07/07 10:09:50;;;;;;;12.05;8.82;;;;;;;36.24;32.88;99009.19;5099211;28;20054;-42
2022/07/07 10:12:20;;;;;;;15.50;9.77;;;;;;;37.02;31.22;99023.16;5082608;28;20043;-42
2022/07/07 10:14:48;;;;;;;9.88;8.27;;;;;;;37.78;29.39;99024.69;5086422;28;20047;-42
2022/07/07 10:17:16;;;;;;;;;;;;;;;37.83;29.43;99023.94;5072537;28;20032;-43
2022/07/07 10:19:43;;;;;;;10.02;8.07;;;;;;;37.78;29.20;99029.28;5052441;28;19916;-44
2022/07/07 10:22:11;;;;;;;13.05;8.40;;;;;;;37.49;29.59;99026.56;5075671;28;20434;-42
2022/07/07 10:24:39;;;;;;;9.40;8.43;;;;;;;37.30;30.06;99034.06;5084741;28;20131;-43
2022/07/07 10:27:05;;;;;;;11.30;8.90;;;;;;;36.34;31.46;99015.66;5076172;28;20036;-41
2022/07/07 10:29:40;;;;;;;8.50;7.70;;;;;;;36.21;31.81;99024.03;5072383;28;20040;-45
2022/07/07 10:32:08;;;;;;;11.73;7.45;;;;;;;35.92;31.64;99024.88;5090390;28;20044;-44
2022/07/07 10:34:36;;;;;;;10.57;8.88;;;;;;;35.58;32.52;99037.22;5090366;28;20061;-42
2022/07/07 10:37:10;;;;;;;10.43;8.10;;;;;;;35.44;32.36;99033.03;5060114;28;20048;-43
2022/07/07 10:39:41;;;;;;;8.63;7.72;;;;;;;35.02;33.12;99035.59;5088780;28;20142;-43
2022/07/07 10:42:20;;;;;;;10.30;8.55;;;;;;;34.69;34.11;99036.00;5090299;28;20049;-42
2022/07/07 10:44:50;;;;;;;9.38;8.30;;;;;;;34.61;34.30;99035.41;5071656;28;20135;-43
2022/07/07 10:47:21;;;;;;;9.80;8.77;;;;;;;34.86;34.18;99045.13;5090978;28;20174;-44
2022/07/07 10:49:48;;;;;;;10.55;8.85;;;;;;;34.22;35.26;99033.91;5097837;28;20044;-42
2022/07/07 10:52:16;;;;;;;12.40;8.57;;;;;;;33.76;36.21;99043.13;5089372;28;20419;-42
2022/07/07 10:54:48;;;;;;;10.02;9.00;;;;;;;34.03;35.95;99035.69;5073759;28;20056;-44
2022/07/07 10:57:17;;;;;;;12.68;9.38;;;;;;;34.10;35.98;99036.47;5100771;28;20048;-42
2022/07/07 11:00:08;;;;;;;10.52;9.57;;;;;;;34.41;35.57;99028.34;5071230;28;20125;-44
2022/07/07 11:02:39;;;;;;;12.65;10.05;;;;;;;34.72;35.57;99040.94;5069130;28;20112;-42
2022/07/07 11:05:14;;;;;;;10.50;9.50;;;;;;;34.54;35.84;99035.50;5071988;28;20043;-43
2022/07/07 11:07:55;;;;;;;12.50;9.85;;;;;;;34.54;35.72;99034.66;5095087;28;20062;-42
2022/07/07 11:10:22;;;;;;;9.95;8.95;;;;;;;34.72;35.76;99032.00;5092521;28;20047;-42
2022/07/07 11:12:53;;;;;;;10.43;9.43;;;;;;;35.03;35.15;99033.72;5092495;28;20043;-41
2022/07/07 11:15:21;;;;;;;11.80;10.60;;;;;;;35.94;33.52;99029.00;5098676;28;20206;-42
2022/07/07 11:17:53;;;;;;;11.82;9.15;;;;;;;37.11;31.80;99038.00;5101673;28;20047;-41
2022/07/07 11:20:20;;;;;;;16.60;10.52;;;;;;;37.82;30.85;99028.56;5093406;28;20466;-44
2022/07/07 11:22:48;;;;;;;18.20;10.98;;;;;;;38.31;30.32;99026.97;5079840;28;20093;-43
2022/07/07 11:25:16;;;;;;;11.00;9.90;;;;;;;39.11;29.76;99031.94;5098653;28;20097;-41
2022/07/07 11:27:42;;;;;;;11.63;10.15;;;;;;;39.88;28.30;99041.81;5098307;28;20042;-43